sensor_id;sensor_type;location;lat;lon;timestamp;P1;durP1;ratioP1;P2;durP2;ratioP2
7933;SDS011;4012;48.896;9.192;2023-07-31T00:00:07;5.63;;;2.00;;
7933;SDS011;4012;48.896;9.192;2023-07-31T00:02:36;3.97;;;1.80;;
7933;SDS011;4012;48.896;9.192;2023-07-31T00:05:02;3.20;;;1.70;;
7933;SDS011;4012;48.896;9.192;2023-07-31T00:07:27;3.40;;;1.50;;
7933;SDS011;4012;48.896;9.192;2023-07-31T00:09:53;6.50;;;1.80;;
7933;SDS011;4012;48.896;9.192;2023-07-31T00:12:19;5.27;;;1.63;;
7933;SDS011;4012;48.896;9.192;2023-07-31T00:14:45;5.63;;;2.37;;
7933;SDS011;4012;48.896;9.192;2023-07-31T00:17:11;3.43;;;1.80;;
7933;SDS011;4012;48.896;9.192;2023-07-31T00:19:36;4.00;;;2.13;;
7933;SDS011;4012;48.896;9.192;2023-07-31T00:22:02;3.87;;;1.43;;
7933;SDS011;4012;48.896;9.192;2023-07-31T00:24:28;3.40;;;1.80;;
7933;SDS011;4012;48.896;9.192;2023-07-31T00:26:53;4.17;;;1.90;;
7933;SDS011;4012;48.896;9.192;2023-07-31T00:29:19;4.00;;;1.70;;
7933;SDS011;4012;48.896;9.192;2023-07-31T00:31:45;2.37;;;1.30;;
7933;SDS011;4012;48.896;9.192;2023-07-31T00:34:10;3.53;;;1.47;;
7933;SDS011;4012;48.896;9.192;2023-07-31T00:36:36;3.53;;;1.53;;
7933;SDS011;4012;48.896;9.192;2023-07-31T00:39:01;2.93;;;1.80;;
7933;SDS011;4012;48.896;9.192;2023-07-31T00:41:27;4.20;;;1.60;;
7933;SDS011;4012;48.896;9.192;2023-07-31T00:43:53;3.57;;;1.67;;
7933;SDS011;4012;48.896;9.192;2023-07-31T00:46:18;3.67;;;1.93;;
7933;SDS011;4012;48.896;9.192;2023-07-31T00:48:44;5.80;;;1.87;;
7933;SDS011;4012;48.896;9.192;2023-07-31T00:51:10;4.90;;;1.50;;
7933;SDS011;4012;48.896;9.192;2023-07-31T00:53:36;4.33;;;1.80;;
7933;SDS011;4012;48.896;9.192;2023-07-31T00:56:02;4.33;;;1.90;;
7933;SDS011;4012;48.896;9.192;2023-07-31T00:58:29;11.73;;;2.50;;
7933;SDS011;4012;48.896;9.192;2023-07-31T01:00:55;4.80;;;1.57;;
7933;SDS011;4012;48.896;9.192;2023-07-31T01:03:20;4.80;;;1.70;;
7933;SDS011;4012;48.896;9.192;2023-07-31T01:10:46;4.73;;;1.70;;
7933;SDS011;4012;48.896;9.192;2023-07-31T01:13:17;3.20;;;1.60;;
7933;SDS011;4012;48.896;9.192;2023-07-31T01:15:44;4.33;;;1.63;;
7933;SDS011;4012;48.896;9.192;2023-07-31T01:18:09;4.50;;;1.90;;
7933;SDS011;4012;48.896;9.192;2023-07-31T01:20:35;3.00;;;1.57;;
7933;SDS011;4012;48.896;9.192;2023-07-31T01:28:13;4.50;;;1.73;;
7933;SDS011;4012;48.896;9.192;2023-07-31T01:30:43;4.83;;;1.57;;
7933;SDS011;4012;48.896;9.192;2023-07-31T01:33:12;2.50;;;1.47;;
7933;SDS011;4012;48.896;9.192;2023-07-31T01:35:43;3.33;;;1.77;;
7933;SDS011;4012;48.896;9.192;2023-07-31T01:38:09;7.40;;;1.50;;
7933;SDS011;4012;48.896;9.192;2023-07-31T01:40:34;6.43;;;1.40;;
7933;SDS011;4012;48.896;9.192;2023-07-31T01:43:00;3.87;;;1.80;;
7933;SDS011;4012;48.896;9.192;2023-07-31T01:45:26;3.37;;;1.63;;
7933;SDS011;4012;48.896;9.192;2023-07-31T01:47:51;3.87;;;1.50;;
7933;SDS011;4012;48.896;9.192;2023-07-31T01:50:17;3.10;;;1.80;;
7933;SDS011;4012;48.896;9.192;2023-07-31T01:52:42;6.33;;;1.67;;
7933;SDS011;4012;48.896;9.192;2023-07-31T01:55:08;3.30;;;1.37;;
7933;SDS011;4012;48.896;9.192;2023-07-31T01:57:33;4.87;;;1.90;;
7933;SDS011;4012;48.896;9.192;2023-07-31T02:00:01;3.30;;;1.50;;
7933;SDS011;4012;48.896;9.192;2023-07-31T02:02:26;4.47;;;1.83;;
7933;SDS011;4012;48.896;9.192;2023-07-31T02:04:52;4.30;;;1.70;;
7933;SDS011;4012;48.896;9.192;2023-07-31T02:07:17;3.53;;;1.70;;
7933;SDS011;4012;48.896;9.192;2023-07-31T02:09:43;4.27;;;1.77;;
7933;SDS011;4012;48.896;9.192;2023-07-31T02:12:09;3.63;;;1.73;;
7933;SDS011;4012;48.896;9.192;2023-07-31T02:14:34;3.17;;;1.60;;
7933;SDS011;4012;48.896;9.192;2023-07-31T02:17:00;3.13;;;1.77;;
7933;SDS011;4012;48.896;9.192;2023-07-31T02:19:26;2.93;;;1.70;;
7933;SDS011;4012;48.896;9.192;2023-07-31T02:21:51;2.53;;;1.80;;
7933;SDS011;4012;48.896;9.192;2023-07-31T02:24:17;3.10;;;1.70;;
7933;SDS011;4012;48.896;9.192;2023-07-31T02:26:42;2.67;;;1.60;;
7933;SDS011;4012;48.896;9.192;2023-07-31T02:29:08;2.10;;;1.73;;
7933;SDS011;4012;48.896;9.192;2023-07-31T02:31:34;4.90;;;1.93;;
7933;SDS011;4012;48.896;9.192;2023-07-31T02:33:59;4.57;;;1.77;;
7933;SDS011;4012;48.896;9.192;2023-07-31T02:36:25;3.10;;;1.93;;
7933;SDS011;4012;48.896;9.192;2023-07-31T02:38:50;3.43;;;1.73;;
7933;SDS011;4012;48.896;9.192;2023-07-31T02:41:16;6.63;;;2.10;;
7933;SDS011;4012;48.896;9.192;2023-07-31T02:43:42;3.30;;;1.60;;
7933;SDS011;4012;48.896;9.192;2023-07-31T02:46:07;7.00;;;1.70;;
7933;SDS011;4012;48.896;9.192;2023-07-31T02:48:33;4.80;;;1.80;;
7933;SDS011;4012;48.896;9.192;2023-07-31T02:50:58;2.63;;;1.50;;
7933;SDS011;4012;48.896;9.192;2023-07-31T02:53:24;2.87;;;1.67;;
7933;SDS011;4012;48.896;9.192;2023-07-31T02:55:49;1.83;;;1.60;;
7933;SDS011;4012;48.896;9.192;2023-07-31T02:58:15;3.60;;;1.70;;
7933;SDS011;4012;48.896;9.192;2023-07-31T03:00:44;2.90;;;1.70;;
7933;SDS011;4012;48.896;9.192;2023-07-31T03:03:10;6.87;;;1.93;;
7933;SDS011;4012;48.896;9.192;2023-07-31T03:05:35;3.40;;;1.73;;
7933;SDS011;4012;48.896;9.192;2023-07-31T03:08:01;3.40;;;2.13;;
7933;SDS011;4012;48.896;9.192;2023-07-31T03:10:26;8.10;;;1.80;;
7933;SDS011;4012;48.896;9.192;2023-07-31T03:12:52;1.60;;;1.23;;
7933;SDS011;4012;48.896;9.192;2023-07-31T03:15:18;4.30;;;1.93;;
7933;SDS011;4012;48.896;9.192;2023-07-31T03:17:43;6.13;;;1.90;;
7933;SDS011;4012;48.896;9.192;2023-07-31T03:20:09;4.57;;;1.67;;
7933;SDS011;4012;48.896;9.192;2023-07-31T03:22:35;5.20;;;2.07;;
7933;SDS011;4012;48.896;9.192;2023-07-31T03:25:01;3.53;;;1.90;;
7933;SDS011;4012;48.896;9.192;2023-07-31T03:27:27;3.33;;;1.80;;
7933;SDS011;4012;48.896;9.192;2023-07-31T03:29:53;3.87;;;1.73;;
7933;SDS011;4012;48.896;9.192;2023-07-31T03:32:18;4.93;;;1.90;;
7933;SDS011;4012;48.896;9.192;2023-07-31T03:34:44;3.80;;;1.90;;
7933;SDS011;4012;48.896;9.192;2023-07-31T03:37:10;4.10;;;1.90;;
7933;SDS011;4012;48.896;9.192;2023-07-31T03:39:35;4.07;;;1.80;;
7933;SDS011;4012;48.896;9.192;2023-07-31T03:42:01;4.50;;;1.80;;
7933;SDS011;4012;48.896;9.192;2023-07-31T03:44:32;3.60;;;1.57;;
7933;SDS011;4012;48.896;9.192;2023-07-31T03:47:03;3.00;;;1.70;;
7933;SDS011;4012;48.896;9.192;2023-07-31T03:49:29;4.47;;;1.90;;
7933;SDS011;4012;48.896;9.192;2023-07-31T03:51:54;3.60;;;1.60;;
7933;SDS011;4012;48.896;9.192;2023-07-31T03:54:20;2.43;;;1.97;;
7933;SDS011;4012;48.896;9.192;2023-07-31T03:56:45;1.73;;;1.50;;
7933;SDS011;4012;48.896;9.192;2023-07-31T03:59:11;4.10;;;1.80;;
7933;SDS011;4012;48.896;9.192;2023-07-31T04:01:36;3.17;;;1.70;;
7933;SDS011;4012;48.896;9.192;2023-07-31T04:04:02;3.40;;;1.80;;
7933;SDS011;4012;48.896;9.192;2023-07-31T04:06:28;4.47;;;2.50;;
7933;SDS011;4012;48.896;9.192;2023-07-31T04:08:53;3.37;;;1.80;;
7933;SDS011;4012;48.896;9.192;2023-07-31T04:11:19;3.93;;;1.53;;
7933;SDS011;4012;48.896;9.192;2023-07-31T04:13:44;6.50;;;2.03;;
7933;SDS011;4012;48.896;9.192;2023-07-31T04:16:10;3.87;;;1.97;;
7933;SDS011;4012;48.896;9.192;2023-07-31T04:18:37;4.03;;;1.80;;
7933;SDS011;4012;48.896;9.192;2023-07-31T04:21:03;2.83;;;1.73;;
7933;SDS011;4012;48.896;9.192;2023-07-31T04:23:28;3.93;;;1.83;;
7933;SDS011;4012;48.896;9.192;2023-07-31T04:25:54;6.40;;;2.07;;
7933;SDS011;4012;48.896;9.192;2023-07-31T04:28:19;3.20;;;2.00;;
7933;SDS011;4012;48.896;9.192;2023-07-31T04:30:45;3.27;;;1.63;;
7933;SDS011;4012;48.896;9.192;2023-07-31T04:33:11;4.40;;;1.67;;
7933;SDS011;4012;48.896;9.192;2023-07-31T04:35:36;5.27;;;1.83;;
7933;SDS011;4012;48.896;9.192;2023-07-31T04:38:02;3.60;;;1.77;;
7933;SDS011;4012;48.896;9.192;2023-07-31T04:40:27;5.67;;;1.97;;
7933;SDS011;4012;48.896;9.192;2023-07-31T04:42:53;5.17;;;1.93;;
7933;SDS011;4012;48.896;9.192;2023-07-31T04:45:18;5.80;;;1.93;;
7933;SDS011;4012;48.896;9.192;2023-07-31T04:47:44;7.10;;;2.10;;
7933;SDS011;4012;48.896;9.192;2023-07-31T04:50:10;5.13;;;1.97;;
7933;SDS011;4012;48.896;9.192;2023-07-31T04:52:35;3.53;;;1.77;;
7933;SDS011;4012;48.896;9.192;2023-07-31T04:55:01;6.23;;;2.40;;
7933;SDS011;4012;48.896;9.192;2023-07-31T04:57:27;3.20;;;1.77;;
7933;SDS011;4012;48.896;9.192;2023-07-31T04:59:53;3.43;;;1.87;;
7933;SDS011;4012;48.896;9.192;2023-07-31T05:02:18;5.37;;;1.77;;
7933;SDS011;4012;48.896;9.192;2023-07-31T05:04:44;4.03;;;2.00;;
7933;SDS011;4012;48.896;9.192;2023-07-31T05:07:10;4.70;;;2.30;;
7933;SDS011;4012;48.896;9.192;2023-07-31T05:09:35;3.73;;;1.80;;
7933;SDS011;4012;48.896;9.192;2023-07-31T05:12:01;2.83;;;1.70;;
7933;SDS011;4012;48.896;9.192;2023-07-31T05:14:27;3.40;;;1.80;;
7933;SDS011;4012;48.896;9.192;2023-07-31T05:16:52;4.20;;;1.50;;
7933;SDS011;4012;48.896;9.192;2023-07-31T05:19:18;3.27;;;1.90;;
7933;SDS011;4012;48.896;9.192;2023-07-31T05:21:43;3.90;;;2.03;;
7933;SDS011;4012;48.896;9.192;2023-07-31T05:24:09;3.90;;;2.07;;
7933;SDS011;4012;48.896;9.192;2023-07-31T05:26:35;3.70;;;1.80;;
7933;SDS011;4012;48.896;9.192;2023-07-31T05:29:01;4.87;;;2.13;;
7933;SDS011;4012;48.896;9.192;2023-07-31T05:31:27;7.40;;;2.20;;
7933;SDS011;4012;48.896;9.192;2023-07-31T05:33:52;3.87;;;2.20;;
7933;SDS011;4012;48.896;9.192;2023-07-31T05:36:18;3.03;;;2.00;;
7933;SDS011;4012;48.896;9.192;2023-07-31T05:38:43;2.63;;;1.87;;
7933;SDS011;4012;48.896;9.192;2023-07-31T05:41:10;8.13;;;4.63;;
7933;SDS011;4012;48.896;9.192;2023-07-31T05:43:36;5.27;;;2.30;;
7933;SDS011;4012;48.896;9.192;2023-07-31T05:46:05;3.00;;;2.10;;
7933;SDS011;4012;48.896;9.192;2023-07-31T05:48:31;4.00;;;2.03;;
7933;SDS011;4012;48.896;9.192;2023-07-31T05:50:59;8.83;;;4.33;;
7933;SDS011;4012;48.896;9.192;2023-07-31T05:53:24;5.23;;;2.43;;
7933;SDS011;4012;48.896;9.192;2023-07-31T05:55:50;8.00;;;2.43;;
7933;SDS011;4012;48.896;9.192;2023-07-31T05:58:15;3.27;;;1.90;;
7933;SDS011;4012;48.896;9.192;2023-07-31T06:00:41;3.63;;;1.83;;
7933;SDS011;4012;48.896;9.192;2023-07-31T06:03:07;5.63;;;2.17;;
7933;SDS011;4012;48.896;9.192;2023-07-31T06:05:32;3.07;;;1.70;;
7933;SDS011;4012;48.896;9.192;2023-07-31T06:07:58;4.40;;;1.63;;
7933;SDS011;4012;48.896;9.192;2023-07-31T06:10:24;3.10;;;1.80;;
7933;SDS011;4012;48.896;9.192;2023-07-31T06:12:49;4.07;;;1.50;;
7933;SDS011;4012;48.896;9.192;2023-07-31T06:15:15;4.53;;;2.13;;
7933;SDS011;4012;48.896;9.192;2023-07-31T06:17:40;3.17;;;1.77;;
7933;SDS011;4012;48.896;9.192;2023-07-31T06:20:07;2.97;;;1.80;;
7933;SDS011;4012;48.896;9.192;2023-07-31T06:22:33;3.47;;;1.77;;
7933;SDS011;4012;48.896;9.192;2023-07-31T06:24:59;4.87;;;1.93;;
7933;SDS011;4012;48.896;9.192;2023-07-31T06:27:24;6.13;;;2.00;;
7933;SDS011;4012;48.896;9.192;2023-07-31T06:29:50;7.93;;;2.43;;
7933;SDS011;4012;48.896;9.192;2023-07-31T06:32:16;2.37;;;1.50;;
7933;SDS011;4012;48.896;9.192;2023-07-31T06:34:44;3.27;;;1.90;;
7933;SDS011;4012;48.896;9.192;2023-07-31T06:37:10;4.73;;;2.10;;
7933;SDS011;4012;48.896;9.192;2023-07-31T06:39:35;5.07;;;1.90;;
7933;SDS011;4012;48.896;9.192;2023-07-31T06:42:02;2.27;;;1.57;;
7933;SDS011;4012;48.896;9.192;2023-07-31T06:44:28;4.87;;;2.20;;
7933;SDS011;4012;48.896;9.192;2023-07-31T06:46:53;4.53;;;2.30;;
7933;SDS011;4012;48.896;9.192;2023-07-31T06:49:19;6.47;;;1.90;;
7933;SDS011;4012;48.896;9.192;2023-07-31T06:51:44;4.47;;;1.87;;
7933;SDS011;4012;48.896;9.192;2023-07-31T06:54:10;2.80;;;1.77;;
7933;SDS011;4012;48.896;9.192;2023-07-31T06:56:36;5.57;;;2.13;;
7933;SDS011;4012;48.896;9.192;2023-07-31T06:59:01;3.83;;;2.10;;
7933;SDS011;4012;48.896;9.192;2023-07-31T07:01:28;3.10;;;1.83;;
7933;SDS011;4012;48.896;9.192;2023-07-31T07:03:53;2.83;;;1.70;;
7933;SDS011;4012;48.896;9.192;2023-07-31T07:06:19;4.03;;;1.90;;
7933;SDS011;4012;48.896;9.192;2023-07-31T07:08:48;3.63;;;1.73;;
7933;SDS011;4012;48.896;9.192;2023-07-31T07:11:14;3.53;;;1.73;;
7933;SDS011;4012;48.896;9.192;2023-07-31T07:13:39;5.83;;;2.10;;
7933;SDS011;4012;48.896;9.192;2023-07-31T07:16:05;3.67;;;1.80;;
7933;SDS011;4012;48.896;9.192;2023-07-31T07:18:30;5.23;;;2.20;;
7933;SDS011;4012;48.896;9.192;2023-07-31T07:20:56;3.63;;;2.00;;
7933;SDS011;4012;48.896;9.192;2023-07-31T07:23:23;4.20;;;1.77;;
7933;SDS011;4012;48.896;9.192;2023-07-31T07:25:49;3.70;;;2.10;;
7933;SDS011;4012;48.896;9.192;2023-07-31T07:28:14;4.50;;;2.20;;
7933;SDS011;4012;48.896;9.192;2023-07-31T07:30:40;4.23;;;2.57;;
7933;SDS011;4012;48.896;9.192;2023-07-31T07:33:06;2.13;;;1.60;;
7933;SDS011;4012;48.896;9.192;2023-07-31T07:35:35;4.10;;;1.80;;
7933;SDS011;4012;48.896;9.192;2023-07-31T07:38:01;2.83;;;2.33;;
7933;SDS011;4012;48.896;9.192;2023-07-31T07:40:27;4.83;;;2.10;;
7933;SDS011;4012;48.896;9.192;2023-07-31T07:42:53;2.77;;;2.03;;
7933;SDS011;4012;48.896;9.192;2023-07-31T07:45:18;3.57;;;1.90;;
7933;SDS011;4012;48.896;9.192;2023-07-31T07:47:44;3.77;;;2.17;;
7933;SDS011;4012;48.896;9.192;2023-07-31T07:50:10;3.47;;;1.90;;
7933;SDS011;4012;48.896;9.192;2023-07-31T07:52:35;4.87;;;2.10;;
7933;SDS011;4012;48.896;9.192;2023-07-31T07:55:01;3.87;;;2.20;;
7933;SDS011;4012;48.896;9.192;2023-07-31T07:57:28;7.13;;;2.40;;
7933;SDS011;4012;48.896;9.192;2023-07-31T07:59:53;4.27;;;2.00;;
7933;SDS011;4012;48.896;9.192;2023-07-31T08:02:19;4.07;;;2.00;;
7933;SDS011;4012;48.896;9.192;2023-07-31T08:04:44;3.83;;;2.00;;
7933;SDS011;4012;48.896;9.192;2023-07-31T08:07:10;4.07;;;2.20;;
7933;SDS011;4012;48.896;9.192;2023-07-31T08:09:37;3.00;;;2.20;;
7933;SDS011;4012;48.896;9.192;2023-07-31T08:12:03;6.07;;;2.20;;
7933;SDS011;4012;48.896;9.192;2023-07-31T08:14:29;5.67;;;2.00;;
7933;SDS011;4012;48.896;9.192;2023-07-31T08:16:55;6.40;;;2.40;;
7933;SDS011;4012;48.896;9.192;2023-07-31T08:19:21;3.17;;;1.88;;
7933;SDS011;4012;48.896;9.192;2023-07-31T08:21:46;5.28;;;3.75;;
7933;SDS011;4012;48.896;9.192;2023-07-31T08:24:12;4.40;;;2.30;;
7933;SDS011;4012;48.896;9.192;2023-07-31T08:26:38;4.37;;;2.13;;
7933;SDS011;4012;48.896;9.192;2023-07-31T08:29:03;3.37;;;2.10;;
7933;SDS011;4012;48.896;9.192;2023-07-31T08:31:29;4.57;;;2.20;;
7933;SDS011;4012;48.896;9.192;2023-07-31T08:33:55;4.27;;;2.20;;
7933;SDS011;4012;48.896;9.192;2023-07-31T08:36:21;4.30;;;2.10;;
7933;SDS011;4012;48.896;9.192;2023-07-31T08:38:46;4.17;;;2.27;;
7933;SDS011;4012;48.896;9.192;2023-07-31T08:41:12;2.83;;;2.10;;
7933;SDS011;4012;48.896;9.192;2023-07-31T08:43:38;4.30;;;1.97;;
7933;SDS011;4012;48.896;9.192;2023-07-31T08:46:04;7.33;;;2.87;;
7933;SDS011;4012;48.896;9.192;2023-07-31T08:48:30;4.13;;;2.40;;
7933;SDS011;4012;48.896;9.192;2023-07-31T08:50:57;4.03;;;2.23;;
7933;SDS011;4012;48.896;9.192;2023-07-31T08:53:22;8.00;;;2.50;;
7933;SDS011;4012;48.896;9.192;2023-07-31T08:55:48;4.10;;;2.17;;
7933;SDS011;4012;48.896;9.192;2023-07-31T08:58:14;3.83;;;2.20;;
7933;SDS011;4012;48.896;9.192;2023-07-31T09:00:42;3.47;;;2.17;;
7933;SDS011;4012;48.896;9.192;2023-07-31T09:03:10;6.07;;;2.83;;
7933;SDS011;4012;48.896;9.192;2023-07-31T09:05:40;7.77;;;2.77;;
7933;SDS011;4012;48.896;9.192;2023-07-31T09:08:09;3.70;;;2.23;;
7933;SDS011;4012;48.896;9.192;2023-07-31T09:10:39;5.97;;;2.70;;
7933;SDS011;4012;48.896;9.192;2023-07-31T09:13:10;6.43;;;2.40;;
7933;SDS011;4012;48.896;9.192;2023-07-31T09:15:37;4.07;;;1.80;;
7933;SDS011;4012;48.896;9.192;2023-07-31T09:18:03;4.73;;;2.53;;
7933;SDS011;4012;48.896;9.192;2023-07-31T09:20:30;7.27;;;2.70;;
7933;SDS011;4012;48.896;9.192;2023-07-31T09:22:57;8.07;;;4.93;;
7933;SDS011;4012;48.896;9.192;2023-07-31T09:25:39;7.80;;;2.93;;
7933;SDS011;4012;48.896;9.192;2023-07-31T09:28:08;8.03;;;2.43;;
7933;SDS011;4012;48.896;9.192;2023-07-31T09:30:48;5.70;;;2.23;;
7933;SDS011;4012;48.896;9.192;2023-07-31T09:33:15;4.33;;;2.30;;
7933;SDS011;4012;48.896;9.192;2023-07-31T09:35:42;4.80;;;2.83;;
7933;SDS011;4012;48.896;9.192;2023-07-31T09:38:11;3.17;;;2.00;;
7933;SDS011;4012;48.896;9.192;2023-07-31T09:40:39;4.30;;;2.43;;
7933;SDS011;4012;48.896;9.192;2023-07-31T09:43:07;6.83;;;2.30;;
7933;SDS011;4012;48.896;9.192;2023-07-31T09:45:35;4.60;;;2.63;;
7933;SDS011;4012;48.896;9.192;2023-07-31T09:48:02;4.87;;;2.50;;
7933;SDS011;4012;48.896;9.192;2023-07-31T09:50:29;4.90;;;2.67;;
7933;SDS011;4012;48.896;9.192;2023-07-31T09:52:55;5.80;;;2.63;;
7933;SDS011;4012;48.896;9.192;2023-07-31T09:55:20;3.67;;;2.13;;
7933;SDS011;4012;48.896;9.192;2023-07-31T09:57:46;6.50;;;2.50;;
7933;SDS011;4012;48.896;9.192;2023-07-31T10:00:14;5.13;;;2.47;;
7933;SDS011;4012;48.896;9.192;2023-07-31T10:02:42;4.10;;;2.40;;
7933;SDS011;4012;48.896;9.192;2023-07-31T10:05:13;5.47;;;3.10;;
7933;SDS011;4012;48.896;9.192;2023-07-31T10:07:43;3.30;;;2.70;;
7933;SDS011;4012;48.896;9.192;2023-07-31T10:10:15;6.03;;;3.30;;
7933;SDS011;4012;48.896;9.192;2023-07-31T10:12:41;6.70;;;4.33;;
7933;SDS011;4012;48.896;9.192;2023-07-31T10:15:09;5.10;;;3.10;;
7933;SDS011;4012;48.896;9.192;2023-07-31T10:17:35;7.03;;;2.90;;
7933;SDS011;4012;48.896;9.192;2023-07-31T10:20:02;3.77;;;2.40;;
7933;SDS011;4012;48.896;9.192;2023-07-31T10:22:30;5.33;;;2.40;;
7933;SDS011;4012;48.896;9.192;2023-07-31T10:24:57;5.13;;;3.47;;
7933;SDS011;4012;48.896;9.192;2023-07-31T10:27:24;4.57;;;3.13;;
7933;SDS011;4012;48.896;9.192;2023-07-31T10:29:50;7.50;;;2.73;;
7933;SDS011;4012;48.896;9.192;2023-07-31T10:32:19;3.07;;;2.63;;
7933;SDS011;4012;48.896;9.192;2023-07-31T10:34:46;5.27;;;2.90;;
7933;SDS011;4012;48.896;9.192;2023-07-31T10:40:05;6.03;;;3.47;;
7933;SDS011;4012;48.896;9.192;2023-07-31T10:42:38;7.10;;;2.80;;
7933;SDS011;4012;48.896;9.192;2023-07-31T10:45:50;6.47;;;2.00;;
7933;SDS011;4012;48.896;9.192;2023-07-31T10:48:16;4.23;;;2.47;;
7933;SDS011;4012;48.896;9.192;2023-07-31T10:53:26;6.80;;;2.60;;
7933;SDS011;4012;48.896;9.192;2023-07-31T10:55:59;5.90;;;3.80;;
7933;SDS011;4012;48.896;9.192;2023-07-31T10:58:26;5.67;;;2.77;;
7933;SDS011;4012;48.896;9.192;2023-07-31T11:00:54;6.90;;;2.77;;
7933;SDS011;4012;48.896;9.192;2023-07-31T11:03:24;5.40;;;2.90;;
7933;SDS011;4012;48.896;9.192;2023-07-31T11:05:52;4.03;;;2.83;;
7933;SDS011;4012;48.896;9.192;2023-07-31T11:08:25;5.97;;;2.63;;
7933;SDS011;4012;48.896;9.192;2023-07-31T11:13:26;6.73;;;2.67;;
7933;SDS011;4012;48.896;9.192;2023-07-31T11:15:52;5.17;;;2.80;;
7933;SDS011;4012;48.896;9.192;2023-07-31T11:18:18;4.30;;;2.83;;
7933;SDS011;4012;48.896;9.192;2023-07-31T11:20:44;3.00;;;2.40;;
7933;SDS011;4012;48.896;9.192;2023-07-31T11:23:10;4.50;;;2.63;;
7933;SDS011;4012;48.896;9.192;2023-07-31T11:25:36;5.47;;;2.67;;
7933;SDS011;4012;48.896;9.192;2023-07-31T11:28:04;6.93;;;3.43;;
7933;SDS011;4012;48.896;9.192;2023-07-31T11:30:30;6.60;;;4.10;;
7933;SDS011;4012;48.896;9.192;2023-07-31T11:32:56;5.77;;;2.77;;
7933;SDS011;4012;48.896;9.192;2023-07-31T11:35:22;5.00;;;3.10;;
7933;SDS011;4012;48.896;9.192;2023-07-31T11:37:48;5.60;;;2.80;;
7933;SDS011;4012;48.896;9.192;2023-07-31T11:40:14;5.57;;;3.20;;
7933;SDS011;4012;48.896;9.192;2023-07-31T11:42:40;5.20;;;3.47;;
7933;SDS011;4012;48.896;9.192;2023-07-31T11:45:06;4.63;;;2.93;;
7933;SDS011;4012;48.896;9.192;2023-07-31T11:47:33;6.90;;;3.17;;
7933;SDS011;4012;48.896;9.192;2023-07-31T11:50:00;4.50;;;2.50;;
7933;SDS011;4012;48.896;9.192;2023-07-31T11:52:27;5.23;;;3.53;;
7933;SDS011;4012;48.896;9.192;2023-07-31T11:54:54;6.83;;;4.00;;
7933;SDS011;4012;48.896;9.192;2023-07-31T11:57:21;4.97;;;2.73;;
7933;SDS011;4012;48.896;9.192;2023-07-31T11:59:47;7.50;;;2.90;;
7933;SDS011;4012;48.896;9.192;2023-07-31T12:02:14;7.63;;;3.10;;
7933;SDS011;4012;48.896;9.192;2023-07-31T12:04:40;4.57;;;3.63;;
7933;SDS011;4012;48.896;9.192;2023-07-31T12:07:05;4.20;;;2.77;;
7933;SDS011;4012;48.896;9.192;2023-07-31T12:09:31;3.83;;;2.80;;
7933;SDS011;4012;48.896;9.192;2023-07-31T12:11:56;5.37;;;2.80;;
7933;SDS011;4012;48.896;9.192;2023-07-31T12:14:26;3.33;;;2.23;;
7933;SDS011;4012;48.896;9.192;2023-07-31T12:16:58;4.07;;;2.80;;
7933;SDS011;4012;48.896;9.192;2023-07-31T12:19:29;6.27;;;3.30;;
7933;SDS011;4012;48.896;9.192;2023-07-31T12:22:01;5.60;;;2.90;;
7933;SDS011;4012;48.896;9.192;2023-07-31T12:24:35;6.83;;;3.07;;
7933;SDS011;4012;48.896;9.192;2023-07-31T12:27:08;6.17;;;2.93;;
7933;SDS011;4012;48.896;9.192;2023-07-31T12:29:37;3.57;;;2.77;;
7933;SDS011;4012;48.896;9.192;2023-07-31T12:32:04;4.67;;;2.90;;
7933;SDS011;4012;48.896;9.192;2023-07-31T12:34:43;7.00;;;4.27;;
7933;SDS011;4012;48.896;9.192;2023-07-31T12:37:08;5.43;;;2.90;;
7933;SDS011;4012;48.896;9.192;2023-07-31T12:39:34;5.07;;;2.90;;
7933;SDS011;4012;48.896;9.192;2023-07-31T12:42:00;4.50;;;2.83;;
7933;SDS011;4012;48.896;9.192;2023-07-31T12:44:25;5.63;;;3.00;;
7933;SDS011;4012;48.896;9.192;2023-07-31T12:46:51;6.30;;;2.90;;
7933;SDS011;4012;48.896;9.192;2023-07-31T12:49:16;5.63;;;2.90;;
7933;SDS011;4012;48.896;9.192;2023-07-31T12:51:42;4.67;;;2.77;;
7933;SDS011;4012;48.896;9.192;2023-07-31T12:54:08;4.37;;;2.80;;
7933;SDS011;4012;48.896;9.192;2023-07-31T12:56:33;6.23;;;2.83;;
7933;SDS011;4012;48.896;9.192;2023-07-31T12:58:59;5.20;;;2.60;;
7933;SDS011;4012;48.896;9.192;2023-07-31T13:01:24;5.63;;;2.53;;
7933;SDS011;4012;48.896;9.192;2023-07-31T13:03:50;5.20;;;2.80;;
7933;SDS011;4012;48.896;9.192;2023-07-31T13:06:16;4.83;;;2.53;;
7933;SDS011;4012;48.896;9.192;2023-07-31T13:08:41;4.77;;;2.60;;
7933;SDS011;4012;48.896;9.192;2023-07-31T13:11:08;4.70;;;2.70;;
7933;SDS011;4012;48.896;9.192;2023-07-31T13:13:34;5.17;;;2.93;;
7933;SDS011;4012;48.896;9.192;2023-07-31T13:15:59;7.07;;;2.93;;
7933;SDS011;4012;48.896;9.192;2023-07-31T13:18:25;6.30;;;3.27;;
7933;SDS011;4012;48.896;9.192;2023-07-31T13:20:51;4.90;;;2.37;;
7933;SDS011;4012;48.896;9.192;2023-07-31T13:23:16;4.90;;;2.60;;
7933;SDS011;4012;48.896;9.192;2023-07-31T13:25:42;4.50;;;2.90;;
7933;SDS011;4012;48.896;9.192;2023-07-31T13:28:08;4.13;;;2.77;;
7933;SDS011;4012;48.896;9.192;2023-07-31T13:30:33;5.03;;;2.70;;
7933;SDS011;4012;48.896;9.192;2023-07-31T13:32:59;4.47;;;2.67;;
7933;SDS011;4012;48.896;9.192;2023-07-31T13:35:25;5.00;;;2.37;;
7933;SDS011;4012;48.896;9.192;2023-07-31T13:37:50;5.77;;;2.80;;
7933;SDS011;4012;48.896;9.192;2023-07-31T13:40:16;5.07;;;2.50;;
7933;SDS011;4012;48.896;9.192;2023-07-31T13:42:41;4.00;;;2.47;;
7933;SDS011;4012;48.896;9.192;2023-07-31T13:45:07;4.10;;;2.67;;
7933;SDS011;4012;48.896;9.192;2023-07-31T13:47:33;3.60;;;2.70;;
7933;SDS011;4012;48.896;9.192;2023-07-31T13:49:59;6.93;;;2.40;;
7933;SDS011;4012;48.896;9.192;2023-07-31T13:52:24;4.83;;;2.67;;
7933;SDS011;4012;48.896;9.192;2023-07-31T13:54:50;5.67;;;2.70;;
7933;SDS011;4012;48.896;9.192;2023-07-31T13:57:15;4.13;;;2.67;;
7933;SDS011;4012;48.896;9.192;2023-07-31T13:59:42;5.63;;;2.93;;
7933;SDS011;4012;48.896;9.192;2023-07-31T14:02:07;2.80;;;2.30;;
7933;SDS011;4012;48.896;9.192;2023-07-31T14:04:33;5.90;;;2.57;;
7933;SDS011;4012;48.896;9.192;2023-07-31T14:06:58;6.20;;;2.93;;
7933;SDS011;4012;48.896;9.192;2023-07-31T14:09:24;3.37;;;2.50;;
7933;SDS011;4012;48.896;9.192;2023-07-31T14:11:50;5.03;;;2.60;;
7933;SDS011;4012;48.896;9.192;2023-07-31T14:14:15;3.70;;;2.50;;
7933;SDS011;4012;48.896;9.192;2023-07-31T14:16:43;5.33;;;2.80;;
7933;SDS011;4012;48.896;9.192;2023-07-31T14:19:08;6.23;;;2.53;;
7933;SDS011;4012;48.896;9.192;2023-07-31T14:21:34;12.07;;;3.10;;
7933;SDS011;4012;48.896;9.192;2023-07-31T14:23:59;5.83;;;2.60;;
7933;SDS011;4012;48.896;9.192;2023-07-31T14:26:25;3.60;;;2.70;;
7933;SDS011;4012;48.896;9.192;2023-07-31T14:28:51;6.03;;;2.87;;
7933;SDS011;4012;48.896;9.192;2023-07-31T14:31:16;4.13;;;2.57;;
7933;SDS011;4012;48.896;9.192;2023-07-31T14:33:42;4.37;;;2.50;;
7933;SDS011;4012;48.896;9.192;2023-07-31T14:36:08;4.07;;;2.30;;
7933;SDS011;4012;48.896;9.192;2023-07-31T14:38:33;5.47;;;4.53;;
7933;SDS011;4012;48.896;9.192;2023-07-31T14:40:59;4.57;;;3.03;;
7933;SDS011;4012;48.896;9.192;2023-07-31T14:43:24;5.77;;;2.70;;
7933;SDS011;4012;48.896;9.192;2023-07-31T14:45:50;2.87;;;2.40;;
7933;SDS011;4012;48.896;9.192;2023-07-31T14:48:16;3.90;;;2.60;;
7933;SDS011;4012;48.896;9.192;2023-07-31T14:50:42;6.23;;;2.67;;
7933;SDS011;4012;48.896;9.192;2023-07-31T14:53:07;2.43;;;2.23;;
7933;SDS011;4012;48.896;9.192;2023-07-31T14:55:33;5.67;;;2.70;;
7933;SDS011;4012;48.896;9.192;2023-07-31T14:57:59;4.27;;;2.43;;
7933;SDS011;4012;48.896;9.192;2023-07-31T15:00:24;3.87;;;2.63;;
7933;SDS011;4012;48.896;9.192;2023-07-31T15:02:51;9.40;;;3.33;;
7933;SDS011;4012;48.896;9.192;2023-07-31T15:05:17;4.87;;;2.93;;
7933;SDS011;4012;48.896;9.192;2023-07-31T15:07:42;4.83;;;2.50;;
7933;SDS011;4012;48.896;9.192;2023-07-31T15:10:08;4.83;;;2.40;;
7933;SDS011;4012;48.896;9.192;2023-07-31T15:12:34;4.23;;;2.60;;
7933;SDS011;4012;48.896;9.192;2023-07-31T15:14:59;5.13;;;2.77;;
7933;SDS011;4012;48.896;9.192;2023-07-31T15:17:25;5.87;;;2.83;;
7933;SDS011;4012;48.896;9.192;2023-07-31T15:19:50;3.90;;;2.90;;
7933;SDS011;4012;48.896;9.192;2023-07-31T15:22:16;4.20;;;2.60;;
7933;SDS011;4012;48.896;9.192;2023-07-31T15:24:42;4.97;;;2.57;;
7933;SDS011;4012;48.896;9.192;2023-07-31T15:27:07;4.40;;;2.60;;